LiveATC.Net - Listen to live air traffic control over the Internet! Contact for advertising information

ICAO: LFBD  IATA: BOD   Airport: Bordeaux-Merignac Airport
City: Bordeaux
Country: France   Continent: Europe
LFBD METAR Weather: LFBD 282100Z AUTO 19005KT CAVOK 08/05 Q1028
LFBD Flight Activity (FlightAware)
Bordeaux Control
Feed Status: UP   Listeners: 3
Listen right in your browser - requires Flash (in browser, requires Flash)
Click here to listen with your own player (launches your MP3 player)
Bordeaux Control Audio Archives
Air to Air123.450
Bordeaux Control BN FL<300127.675
Bordeaux Control L3 FL>300134.250
Bordeaux Control R2 FL>300133.575

NOTE: In case of garbled sound, please refresh the player.


Unauthorized use prohibited. See Terms of Service

Find LiveATC Audio Streams

Airport/ARTCC Code

(e.g., 124.400, 128.75)
Site-wide search

Browse LiveATC Feeds
LiveATC Coverage Map
Top 50 LiveATC Feeds
Bad Weather Areas

Offer a LiveATC Feed
Press Inquiries

LiveATC on iPhone
LiveATC on Android

Windows Phone
Windows 8/10

LiveATC Mobile
(Mobile browser)

ATC Audio Archives
Interesting Recordings

LiveATC Forums

Home Page
Make a Donation
LiveATC Bookstore

Terms of Use
Privacy Policy

ATC/Radar Sites
U.S. ARTCC Freqs
Canadian Air Freqs


FAA Airport Status
Nat'l Airspace Status
Arrival Demand Charts

Server Software By:

Please make a donation to help us keep growing!